Time;durP1;ratioP1;P1;durP2;ratioP2;P2;SDS_P1;SDS_P2;PMS_P1;PMS_P2;Temp;Humidity;BMP_temperature;BMP_pressure;BME280_temperature;BME280_humidity;BME280_pressure;Samples;Min_cycle;Max_cycle;Signal;HPM_P1;HPM_P2
2021/01/09 00:00:45;;;;;;;14.70;13.37;;;1.80;99.90;;;;;;4994965;28;20633;-94
2021/01/09 00:03:24;;;;;;;13.97;12.50;;;1.80;99.90;;;;;;4995358;28;20692;-94
2021/01/09 00:05:52;;;;;;;13.20;11.97;;;1.80;99.90;;;;;;4988250;28;20773;-94
2021/01/09 00:08:18;;;;;;;12.33;11.03;;;1.80;99.90;;;;;;4992571;28;20637;-93
2021/01/09 00:10:48;;;;;;;12.67;11.47;;;1.90;99.90;;;;;;4998696;28;20691;-94
2021/01/09 00:13:16;;;;;;;14.00;12.57;;;1.90;99.90;;;;;;4984991;28;20640;-96
2021/01/09 00:15:47;;;;;;;13.33;12.13;;;2.00;99.90;;;;;;4982854;28;20692;-95
2021/01/09 00:18:15;;;;;;;11.80;10.67;;;1.90;99.90;;;;;;4998958;28;20609;-94
2021/01/09 00:20:43;;;;;;;12.57;11.40;;;1.90;99.90;;;;;;4990688;28;20645;-95
2021/01/09 00:23:11;;;;;;;13.20;11.90;;;1.90;99.90;;;;;;4989839;28;21017;-94
2021/01/09 00:25:46;;;;;;;13.33;12.03;;;1.80;99.90;;;;;;5004918;28;20673;-96
2021/01/09 00:28:20;;;;;;;13.33;12.13;;;1.90;99.90;;;;;;5001336;28;20647;-96
2021/01/09 00:30:47;;;;;;;14.27;12.97;;;1.90;99.90;;;;;;4983743;28;20632;-94
2021/01/09 00:33:13;;;;;;;13.03;11.83;;;1.90;99.90;;;;;;4974552;28;21262;-95
2021/01/09 00:35:43;;;;;;;12.70;11.60;;;1.80;99.90;;;;;;4982394;28;20631;-94
2021/01/09 00:38:09;;;;;;;12.00;10.80;;;1.80;99.90;;;;;;4984117;28;20733;-93
2021/01/09 00:40:35;;;;;;;13.13;11.93;;;1.90;99.90;;;;;;4984841;28;20642;-94
2021/01/09 00:43:02;;;;;;;12.83;11.60;;;1.80;99.90;;;;;;4985354;28;20632;-92
2021/01/09 00:45:28;;;;;;;14.10;12.70;;;1.80;99.90;;;;;;5001022;28;20712;-93
2021/01/09 00:47:54;;;;;;;13.27;12.07;;;1.90;99.90;;;;;;4995272;28;20628;-93
2021/01/09 00:50:21;;;;;;;13.37;12.03;;;1.90;99.90;;;;;;4996632;28;20711;-93
2021/01/09 00:52:58;;;;;;;13.13;11.80;;;2.00;99.90;;;;;;4992340;28;20945;-91
2021/01/09 00:55:24;;;;;;;13.27;12.00;;;2.00;99.90;;;;;;4997169;28;20639;-93
2021/01/09 00:57:51;;;;;;;12.77;11.57;;;1.90;99.90;;;;;;4979369;28;20645;-93
2021/01/09 01:00:18;;;;;;;14.90;13.50;;;1.90;99.90;;;;;;4982468;28;20642;-94
2021/01/09 01:02:46;;;;;;;13.40;12.10;;;1.90;99.90;;;;;;4979913;28;20728;-94
2021/01/09 01:05:13;;;;;;;14.23;12.90;;;1.80;99.90;;;;;;4972319;28;20667;-94
2021/01/09 01:07:39;;;;;;;12.73;11.53;;;1.80;99.90;;;;;;4971364;28;20751;-92
2021/01/09 01:10:08;;;;;;;13.17;11.87;;;1.80;99.90;;;;;;4968058;28;20640;-93
2021/01/09 01:12:35;;;;;;;12.47;11.20;;;1.80;99.90;;;;;;4969650;28;20755;-94
2021/01/09 01:15:02;;;;;;;12.23;10.93;;;1.80;99.90;;;;;;4972003;28;20659;-93
2021/01/09 01:17:29;;;;;;;13.50;12.20;;;1.80;99.90;;;;;;4975356;28;20637;-93
2021/01/09 01:19:55;;;;;;;12.80;11.60;;;2.00;99.90;;;;;;4975300;28;20699;-92
2021/01/09 01:22:21;;;;;;;14.57;11.00;;;2.00;99.90;;;;;;4970019;28;20851;-93
2021/01/09 01:24:58;;;;;;;12.80;11.60;;;2.00;99.90;;;;;;4985300;28;20685;-95
2021/01/09 01:27:27;;;;;;;12.10;11.00;;;1.90;99.90;;;;;;4990213;28;20657;-96
2021/01/09 01:30:09;;;;;;;11.93;10.80;;;2.00;99.90;;;;;;4980158;28;20725;-93
2021/01/09 01:33:13;;;;;;;14.90;13.40;;;1.90;99.90;;;;;;4989124;28;20653;-96
2021/01/09 01:36:19;;;;;;;11.90;10.80;;;1.90;99.90;;;;;;4992692;28;20661;-95
2021/01/09 01:38:56;;;;;;;12.33;11.23;;;1.90;99.90;;;;;;5012435;28;20664;-96
2021/01/09 01:41:24;;;;;;;11.37;10.37;;;1.90;99.90;;;;;;4976898;28;20686;-96
2021/01/09 01:43:52;;;;;;;14.13;11.20;;;1.90;99.90;;;;;;4981882;28;20665;-94
2021/01/09 01:46:23;;;;;;;13.60;12.30;;;1.90;99.90;;;;;;4976504;28;20773;-95
2021/01/09 01:48:51;;;;;;;12.17;11.10;;;1.90;99.90;;;;;;4983423;28;20690;-95
2021/01/09 01:51:20;;;;;;;11.77;10.67;;;1.90;99.90;;;;;;4983628;28;20694;-96
2021/01/09 01:53:46;;;;;;;12.33;11.20;;;1.90;99.90;;;;;;4976084;28;20656;-96
2021/01/09 01:56:15;;;;;;;11.47;10.43;;;1.90;99.90;;;;;;4991490;28;20644;-95
2021/01/09 01:58:45;;;;;;;12.80;11.50;;;1.90;99.90;;;;;;4986965;28;20646;-96
2021/01/09 02:01:21;;;;;;;12.70;11.40;;;1.90;99.90;;;;;;4988582;28;20666;-95
2021/01/09 02:03:50;;;;;;;13.10;11.90;;;1.90;99.90;;;;;;4985951;28;20657;-93
2021/01/09 02:06:21;;;;;;;11.73;10.63;;;1.90;99.90;;;;;;4976345;28;21422;-94
2021/01/09 02:09:03;;;;;;;12.27;11.17;;;1.90;99.90;;;;;;4982350;28;20650;-94
2021/01/09 02:11:38;;;;;;;12.30;11.20;;;1.90;99.90;;;;;;4975527;28;20654;-95
2021/01/09 02:14:15;;;;;;;12.20;11.20;;;1.90;99.90;;;;;;4970304;28;20662;-94
2021/01/09 02:16:47;;;;;;;12.50;11.20;;;2.00;99.90;;;;;;4978252;28;20700;-94
2021/01/09 02:19:17;;;;;;;12.37;11.37;;;1.90;99.90;;;;;;4975996;28;21195;-93
2021/01/09 02:21:47;;;;;;;13.70;12.30;;;1.90;99.90;;;;;;4977255;28;20659;-94
2021/01/09 02:24:22;;;;;;;13.87;12.17;;;1.90;99.90;;;;;;4983575;28;20639;-94
2021/01/09 02:26:50;;;;;;;12.90;11.70;;;1.80;99.90;;;;;;4972212;28;20647;-92
2021/01/09 02:29:17;;;;;;;12.90;11.80;;;1.90;99.90;;;;;;4977168;28;20632;-92
2021/01/09 02:31:52;;;;;;;14.23;12.93;;;1.80;99.90;;;;;;4978026;28;21220;-94
2021/01/09 02:34:20;;;;;;;13.60;12.13;;;1.80;99.90;;;;;;4980847;28;20667;-94
2021/01/09 02:36:47;;;;;;;13.03;11.73;;;1.90;99.90;;;;;;4975677;28;20689;-94
2021/01/09 02:39:15;;;;;;;14.77;12.80;;;1.90;99.90;;;;;;4978077;28;20648;-94
2021/01/09 02:41:47;;;;;;;12.63;11.37;;;1.90;99.90;;;;;;4968889;28;20668;-95
2021/01/09 02:44:15;;;;;;;13.40;12.20;;;1.90;99.90;;;;;;4979947;28;20654;-94
2021/01/09 02:46:41;;;;;;;12.03;10.93;;;1.90;99.90;;;;;;4976520;28;20664;-94
2021/01/09 02:59:23;;;;;;;12.70;11.50;;;1.80;99.90;;;;;;4991084;28;20676;-95
2021/01/09 03:01:49;;;;;;;13.10;11.80;;;1.80;99.90;;;;;;4990186;28;20666;-93
2021/01/09 03:04:22;;;;;;;13.00;11.80;;;1.80;99.90;;;;;;4990566;28;21173;-95
2021/01/09 03:10:24;;;;;;;14.23;12.90;;;1.80;99.90;;;;;;4994290;28;20566;-95
2021/01/09 03:13:18;;;;;;;14.63;13.27;;;1.80;99.90;;;;;;4996326;28;20648;-95
2021/01/09 03:15:48;;;;;;;15.70;14.27;;;1.70;99.90;;;;;;4992349;28;20720;-95
2021/01/09 03:18:18;;;;;;;15.30;13.60;;;1.80;99.90;;;;;;4984264;28;20648;-94
2021/01/09 03:20:44;;;;;;;15.13;13.70;;;1.80;99.90;;;;;;4970778;28;20862;-94
2021/01/09 03:23:11;;;;;;;15.60;14.20;;;1.80;99.90;;;;;;4967474;28;20642;-94
2021/01/09 03:25:38;;;;;;;15.33;13.93;;;1.80;99.90;;;;;;4953133;28;20683;-94
2021/01/09 03:28:05;;;;;;;13.23;11.97;;;1.90;99.90;;;;;;4972992;28;20764;-94
2021/01/09 03:30:32;;;;;;;15.63;14.20;;;1.90;99.90;;;;;;4952299;28;20660;-93
2021/01/09 03:33:00;;;;;;;16.13;14.70;;;1.90;99.90;;;;;;4955087;28;20640;-95
2021/01/09 03:35:28;;;;;;;15.53;13.97;;;1.90;99.90;;;;;;4961392;28;20693;-95
2021/01/09 03:37:55;;;;;;;15.30;13.80;;;1.90;99.90;;;;;;4990901;28;20659;-96
2021/01/09 03:40:35;;;;;;;17.23;15.53;;;1.90;99.90;;;;;;4995536;28;20665;-95
2021/01/09 03:43:11;;;;;;;15.33;13.73;;;1.90;99.90;;;;;;5000111;28;20629;-96
2021/01/09 03:45:38;;;;;;;17.70;16.00;;;1.90;99.90;;;;;;4994429;28;20683;-96
2021/01/09 03:48:07;;;;;;;18.20;16.37;;;1.90;99.90;;;;;;4960853;28;20691;-95
2021/01/09 03:50:53;;;;;;;18.70;17.00;;;1.80;99.90;;;;;;4943883;28;20701;-95
2021/01/09 03:53:23;;;;;;;18.20;16.60;;;1.80;99.90;;;;;;4975149;28;20732;-95
2021/01/09 03:55:53;;;;;;;19.40;17.53;;;1.90;99.90;;;;;;4956920;28;20678;-94
2021/01/09 03:58:20;;;;;;;18.30;16.53;;;1.90;99.90;;;;;;4973319;28;20745;-94
2021/01/09 04:00:48;;;;;;;19.83;18.03;;;1.90;99.90;;;;;;4963040;28;20657;-94
2021/01/09 04:03:15;;;;;;;20.63;18.63;;;1.90;99.90;;;;;;4947546;28;20620;-95
2021/01/09 04:05:45;;;;;;;18.87;17.20;;;1.90;99.90;;;;;;4972966;28;20685;-93
2021/01/09 04:08:13;;;;;;;20.50;18.67;;;1.90;99.90;;;;;;4991808;28;20680;-94
2021/01/09 04:10:41;;;;;;;20.87;18.63;;;1.80;99.90;;;;;;4985478;28;20658;-94
2021/01/09 04:13:08;;;;;;;23.00;20.70;;;2.00;99.90;;;;;;4991003;28;20638;-96
2021/01/09 04:15:35;;;;;;;22.00;18.80;;;2.10;99.90;;;;;;4973599;28;20655;-96
2021/01/09 04:18:02;;;;;;;22.73;20.60;;;2.10;99.90;;;;;;4992395;28;20629;-95
2021/01/09 04:20:29;;;;;;;23.03;20.80;;;2.10;99.90;;;;;;4993931;28;20641;-93
2021/01/09 04:22:56;;;;;;;22.50;20.20;;;2.20;99.90;;;;;;4988314;28;20819;-93
2021/01/09 04:25:23;;;;;;;23.13;20.90;;;2.10;99.90;;;;;;4991699;28;20706;-93
2021/01/09 04:27:49;;;;;;;21.90;19.80;;;2.10;99.90;;;;;;4990315;28;20625;-93
2021/01/09 04:30:16;;;;;;;23.70;21.20;;;2.00;99.90;;;;;;4990965;28;20626;-93
2021/01/09 04:32:43;;;;;;;24.23;21.67;;;2.00;99.90;;;;;;4974648;28;20632;-93
2021/01/09 04:35:10;;;;;;;22.90;20.60;;;2.00;99.90;;;;;;4992617;28;20704;-94
2021/01/09 04:37:38;;;;;;;22.10;19.97;;;2.00;99.90;;;;;;4976360;28;20734;-93
2021/01/09 04:40:06;;;;;;;23.87;21.57;;;2.10;99.90;;;;;;4988531;28;20634;-93
2021/01/09 04:42:33;;;;;;;22.93;20.63;;;2.00;99.90;;;;;;4992769;28;20667;-93
2021/01/09 04:45:00;;;;;;;24.03;21.73;;;2.00;99.90;;;;;;4982270;28;20680;-94
2021/01/09 04:47:27;;;;;;;22.63;20.63;;;2.10;99.90;;;;;;4965366;28;20688;-94
2021/01/09 04:49:54;;;;;;;21.80;19.67;;;2.00;99.90;;;;;;4948860;28;20651;-93
2021/01/09 04:52:21;;;;;;;23.70;21.50;;;2.00;99.90;;;;;;4971966;28;20630;-91
2021/01/09 04:54:50;;;;;;;26.20;22.27;;;2.10;99.90;;;;;;4971641;28;20658;-92
2021/01/09 04:57:16;;;;;;;24.87;21.07;;;2.10;99.90;;;;;;4980143;28;21636;-93
2021/01/09 04:59:44;;;;;;;24.03;21.47;;;2.00;99.90;;;;;;4976237;28;20648;-94
2021/01/09 05:02:15;;;;;;;21.03;18.93;;;2.00;99.90;;;;;;4970056;28;20771;-93
2021/01/09 05:04:45;;;;;;;20.90;18.87;;;2.00;99.90;;;;;;4964863;28;20642;-94
2021/01/09 05:07:12;;;;;;;18.93;17.23;;;2.00;99.90;;;;;;4968740;28;20669;-93
2021/01/09 05:09:38;;;;;;;19.10;17.30;;;2.00;99.90;;;;;;4969959;28;20732;-93
2021/01/09 05:12:08;;;;;;;17.97;16.37;;;2.00;99.90;;;;;;4968626;28;21239;-93
2021/01/09 05:14:34;;;;;;;19.50;17.53;;;2.00;99.90;;;;;;4964838;28;20710;-93
2021/01/09 05:17:02;;;;;;;16.80;15.23;;;2.00;99.90;;;;;;4969506;28;20679;-93
2021/01/09 05:19:29;;;;;;;19.17;17.40;;;2.00;99.90;;;;;;4952850;28;21036;-93
2021/01/09 05:21:57;;;;;;;17.90;16.30;;;2.00;99.90;;;;;;4966753;28;20651;-93
2021/01/09 05:24:24;;;;;;;16.50;15.10;;;2.00;99.90;;;;;;4968437;28;20703;-93
2021/01/09 05:27:01;;;;;;;17.03;15.23;;;2.00;99.90;;;;;;4952557;28;20765;-92
2021/01/09 05:29:31;;;;;;;16.23;14.80;;;2.00;99.90;;;;;;4950737;28;20651;-92
2021/01/09 05:31:57;;;;;;;14.90;13.50;;;1.90;99.90;;;;;;4968304;28;20639;-95
2021/01/09 05:34:24;;;;;;;15.73;14.37;;;1.80;99.90;;;;;;4952120;28;20734;-94
2021/01/09 05:36:50;;;;;;;15.20;13.70;;;1.80;99.90;;;;;;4971528;28;20727;-95
2021/01/09 05:39:18;;;;;;;15.40;14.00;;;1.80;99.90;;;;;;4956078;28;20654;-94
2021/01/09 05:41:45;;;;;;;15.30;13.90;;;1.80;99.90;;;;;;4968667;28;20644;-95
2021/01/09 05:44:12;;;;;;;16.73;15.20;;;1.80;99.90;;;;;;4953791;28;20636;-92
2021/01/09 05:46:41;;;;;;;17.43;15.83;;;1.90;99.90;;;;;;4971488;28;20801;-93
2021/01/09 05:49:09;;;;;;;16.57;15.07;;;1.80;99.90;;;;;;4950599;28;20656;-92
2021/01/09 05:51:38;;;;;;;16.50;15.03;;;1.90;99.90;;;;;;4970288;28;20649;-93
2021/01/09 05:54:05;;;;;;;17.07;15.50;;;1.90;99.90;;;;;;4968315;28;20676;-94
2021/01/09 05:56:34;;;;;;;16.77;15.10;;;1.90;99.90;;;;;;4969418;28;20642;-94
2021/01/09 05:59:01;;;;;;;17.10;15.60;;;1.90;99.90;;;;;;4966739;28;20634;-93
2021/01/09 06:01:30;;;;;;;17.00;15.40;;;1.90;99.90;;;;;;4967578;28;20661;-93
2021/01/09 06:04:07;;;;;;;17.67;16.00;;;1.90;99.90;;;;;;4967834;28;20650;-93
2021/01/09 06:06:43;;;;;;;16.43;14.93;;;1.90;99.90;;;;;;4948924;28;20809;-94
2021/01/09 06:09:10;;;;;;;17.30;15.70;;;1.90;99.90;;;;;;4964970;28;20660;-93
2021/01/09 06:11:39;;;;;;;16.97;15.40;;;1.80;99.90;;;;;;4934659;28;21472;-93
2021/01/09 06:14:06;;;;;;;17.37;15.77;;;1.80;99.90;;;;;;4947159;28;20677;-91
2021/01/09 06:16:35;;;;;;;17.53;15.93;;;1.80;99.90;;;;;;4962566;28;20699;-90
2021/01/09 06:19:02;;;;;;;19.13;17.20;;;1.90;99.90;;;;;;4964817;28;20649;-90
2021/01/09 06:21:32;;;;;;;18.73;16.90;;;1.90;99.90;;;;;;4967343;28;20650;-91
2021/01/09 06:24:00;;;;;;;20.23;18.20;;;1.90;99.90;;;;;;4969958;28;20680;-91
2021/01/09 06:26:29;;;;;;;19.80;17.97;;;1.90;99.90;;;;;;4967543;28;20684;-91
2021/01/09 06:28:57;;;;;;;20.50;18.60;;;1.90;99.90;;;;;;4966672;28;20677;-90
2021/01/09 06:31:26;;;;;;;21.57;19.57;;;1.90;99.90;;;;;;4979785;28;20637;-91
2021/01/09 06:33:54;;;;;;;22.83;20.53;;;1.90;99.90;;;;;;4989702;28;20633;-91
2021/01/09 06:36:24;;;;;;;23.50;20.50;;;1.90;99.90;;;;;;4989314;28;20734;-94
2021/01/09 06:38:53;;;;;;;25.90;23.20;;;1.90;99.90;;;;;;4991242;28;21067;-94
2021/01/09 06:41:21;;;;;;;26.17;23.70;;;1.90;99.90;;;;;;4987111;28;20618;-93
2021/01/09 06:43:49;;;;;;;25.77;23.30;;;1.90;99.90;;;;;;4990664;28;20692;-93
2021/01/09 06:46:29;;;;;;;26.53;23.93;;;1.90;99.90;;;;;;4996209;28;20689;-96
2021/01/09 06:48:57;;;;;;;27.83;24.90;;;2.00;99.90;;;;;;4986600;28;20664;-96
2021/01/09 06:51:44;;;;;;;23.37;21.07;;;2.00;99.90;;;;;;4983966;28;20605;-95
2021/01/09 06:54:27;;;;;;;25.97;23.20;;;2.00;99.90;;;;;;4979973;28;20660;-94
2021/01/09 06:57:14;;;;;;;24.00;21.70;;;2.00;99.90;;;;;;4990639;28;20719;-94
2021/01/09 06:59:42;;;;;;;22.13;20.03;;;1.90;99.90;;;;;;4990889;28;20713;-93
2021/01/09 07:02:22;;;;;;;24.03;21.63;;;2.00;99.90;;;;;;4987530;28;20703;-93
2021/01/09 07:04:50;;;;;;;23.73;21.43;;;2.00;99.90;;;;;;4982715;28;20711;-90
2021/01/09 07:07:29;;;;;;;25.70;23.20;;;2.00;99.90;;;;;;4959364;28;21488;-91
2021/01/09 07:10:03;;;;;;;25.60;23.10;;;2.00;99.90;;;;;;4969385;28;20894;-92
2021/01/09 07:12:30;;;;;;;26.40;23.80;;;1.90;99.90;;;;;;4975363;28;20671;-93
2021/01/09 07:15:06;;;;;;;26.03;23.33;;;2.00;99.90;;;;;;4972167;28;20752;-92
2021/01/09 07:17:38;;;;;;;27.57;24.50;;;2.00;99.90;;;;;;4971098;28;20640;-92
2021/01/09 07:20:07;;;;;;;27.77;24.93;;;1.90;99.90;;;;;;4973001;28;20640;-92
2021/01/09 07:22:40;;;;;;;28.20;25.40;;;1.90;99.90;;;;;;4976525;28;20639;-93
2021/01/09 07:25:09;;;;;;;30.70;27.60;;;1.90;99.90;;;;;;4971306;28;20684;-92
2021/01/09 07:27:40;;;;;;;29.07;26.27;;;1.90;99.90;;;;;;4968983;28;20665;-91
2021/01/09 07:30:12;;;;;;;31.70;28.67;;;2.00;99.90;;;;;;4969618;28;20726;-91
2021/01/09 07:32:48;;;;;;;27.90;25.10;;;1.90;99.90;;;;;;4971107;28;21209;-90
2021/01/09 07:35:22;;;;;;;47.33;39.07;;;1.90;99.90;;;;;;4973828;28;20668;-92
2021/01/09 07:37:56;;;;;;;42.13;35.00;;;1.90;99.90;;;;;;4951174;28;20641;-93
2021/01/09 07:40:34;;;;;;;32.60;29.17;;;1.90;99.90;;;;;;4965339;28;20638;-93
2021/01/09 07:43:01;;;;;;;28.33;25.53;;;2.00;99.90;;;;;;4977841;28;21011;-95
2021/01/09 07:45:33;;;;;;;28.87;25.97;;;2.00;99.90;;;;;;4974862;28;20702;-93
2021/01/09 07:48:00;;;;;;;28.87;26.10;;;2.00;99.90;;;;;;4981993;28;20673;-93
2021/01/09 07:50:42;;;;;;;26.50;23.90;;;2.00;99.90;;;;;;4978879;28;20654;-93
2021/01/09 07:53:27;;;;;;;27.70;24.63;;;2.10;99.90;;;;;;4980144;28;20678;-93
2021/01/09 07:55:59;;;;;;;25.53;23.03;;;2.10;99.90;;;;;;4977027;28;20677;-92
2021/01/09 07:58:46;;;;;;;26.83;24.13;;;2.10;99.90;;;;;;4968093;28;20638;-91
2021/01/09 08:01:12;;;;;;;30.73;27.80;;;2.30;99.90;;;;;;4961902;28;20642;-92
2021/01/09 08:03:40;;;;;;;30.63;27.43;;;2.20;99.90;;;;;;4967927;28;20680;-92
2021/01/09 08:06:07;;;;;;;32.67;29.23;;;2.30;99.90;;;;;;4966079;28;20682;-90
2021/01/09 08:08:34;;;;;;;33.77;30.43;;;2.40;99.90;;;;;;4968473;28;20739;-92
2021/01/09 08:21:54;;;;;;;30.40;27.30;;;2.30;99.90;;;;;;5132406;23;20684;-94
2021/01/09 08:24:23;;;;;;;30.07;27.10;;;2.30;99.90;;;;;;4998337;28;20704;-93
2021/01/09 08:26:53;;;;;;;29.20;26.10;;;2.20;99.90;;;;;;4980926;28;20684;-93
2021/01/09 08:29:21;;;;;;;26.17;23.53;;;2.20;99.90;;;;;;4988726;28;20655;-93
2021/01/09 08:31:48;;;;;;;29.33;26.53;;;2.30;99.90;;;;;;4985993;28;20722;-92
2021/01/09 08:34:15;;;;;;;28.00;25.20;;;2.20;99.90;;;;;;4981050;28;20773;-91
2021/01/09 08:36:48;;;;;;;26.90;24.30;;;2.30;99.90;;;;;;4970744;28;20645;-92
2021/01/09 08:39:27;;;;;;;27.63;24.93;;;2.40;99.90;;;;;;4952712;28;20668;-91
2021/01/09 08:41:53;;;;;;;26.70;24.00;;;2.50;99.90;;;;;;4966845;28;21195;-95
2021/01/09 08:44:20;;;;;;;30.77;27.83;;;2.40;99.90;;;;;;4969297;28;20626;-95
2021/01/09 08:46:47;;;;;;;44.97;40.07;;;2.50;99.90;;;;;;4974020;28;20672;-94
2021/01/09 08:49:24;;;;;;;30.67;27.47;;;2.50;99.90;;;;;;4954286;28;20657;-95
2021/01/09 08:52:08;;;;;;;25.07;22.67;;;2.40;99.90;;;;;;4968009;28;20650;-93
2021/01/09 08:54:47;;;;;;;23.20;20.80;;;2.20;99.90;;;;;;4989289;28;20650;-95
2021/01/09 08:59:48;;;;;;;33.67;29.93;;;2.50;99.90;;;;;;4995060;28;20681;-95
2021/01/09 09:02:53;;;;;;;32.90;28.50;;;2.60;99.90;;;;;;4985776;28;20625;-95
2021/01/09 09:05:30;;;;;;;29.63;26.60;;;2.80;99.90;;;;;;5566592;23;20679;-95
2021/01/09 09:08:00;;;;;;;26.57;23.90;;;2.80;99.90;;;;;;5036041;28;20617;-94
2021/01/09 09:10:37;;;;;;;24.10;21.60;;;2.90;99.90;;;;;;5011573;28;20728;-94
2021/01/09 09:16:19;;;;;;;28.13;25.43;;;2.50;99.90;;;;;;5003526;28;20633;-94
2021/01/09 09:18:49;;;;;;;27.07;24.40;;;2.50;99.90;;;;;;4978302;28;20654;-93
2021/01/09 09:21:24;;;;;;;25.67;23.10;;;2.50;99.90;;;;;;4986920;28;20641;-92
2021/01/09 09:24:09;;;;;;;22.40;20.30;;;2.60;99.90;;;;;;4993159;28;20675;-93
2021/01/09 09:27:01;;;;;;;24.10;21.80;;;2.50;99.90;;;;;;5003347;28;20754;-95
2021/01/09 09:32:46;;;;;;;23.97;21.67;;;2.80;99.90;;;;;;4988140;28;20670;-94
2021/01/09 09:35:19;;;;;;;23.10;20.80;;;2.70;99.90;;;;;;4964157;28;20706;-94
2021/01/09 09:37:47;;;;;;;23.63;21.33;;;2.70;99.90;;;;;;4977581;28;20744;-94
2021/01/09 09:40:26;;;;;;;24.37;21.87;;;2.60;99.90;;;;;;4958035;28;20742;-95
2021/01/09 09:42:52;;;;;;;22.63;20.53;;;2.60;99.90;;;;;;4974472;28;20783;-93
2021/01/09 09:45:25;;;;;;;22.30;20.00;;;2.80;99.90;;;;;;4974720;28;20700;-94
2021/01/09 09:47:59;;;;;;;23.27;20.97;;;2.90;99.90;;;;;;4945354;28;20677;-95
2021/01/09 09:50:25;;;;;;;19.50;17.50;;;2.80;99.90;;;;;;4970703;28;21154;-85
2021/01/09 09:52:59;;;;;;;20.10;18.20;;;2.60;99.90;;;;;;4951918;28;20712;-85
2021/01/09 09:55:25;;;;;;;21.77;19.77;;;2.50;99.90;;;;;;4954383;28;20655;-85
2021/01/09 09:58:05;;;;;;;20.17;18.13;;;2.60;99.90;;;;;;4961455;28;20634;-86
2021/01/09 10:00:32;;;;;;;21.93;19.80;;;2.70;99.90;;;;;;4966286;28;20691;-86
2021/01/09 10:02:59;;;;;;;29.10;26.00;;;2.50;99.90;;;;;;4964583;28;21097;-85
2021/01/09 10:05:26;;;;;;;24.43;21.87;;;2.40;99.90;;;;;;4963996;28;20672;-85
2021/01/09 10:08:09;;;;;;;24.43;22.00;;;2.30;99.90;;;;;;4964578;28;21215;-84
2021/01/09 10:10:35;;;;;;;23.80;21.33;;;2.40;99.90;;;;;;4964453;28;20691;-84
2021/01/09 10:13:24;;;;;;;25.90;23.40;;;2.30;99.90;;;;;;4985309;28;20642;-95
2021/01/09 14:05:37;;;;;;;12.10;10.90;;;2.50;99.90;;;;;;4985900;28;20870;-92
2021/01/09 14:08:06;;;;;;;12.53;11.43;;;2.50;99.90;;;;;;4990198;28;20651;-90
2021/01/09 14:10:32;;;;;;;12.93;11.70;;;2.40;99.90;;;;;;4987413;28;21273;-90
2021/01/09 14:12:59;;;;;;;11.97;10.87;;;2.50;99.90;;;;;;4991032;28;21222;-94
2021/01/09 14:15:28;;;;;;;12.90;11.70;;;2.30;99.90;;;;;;5003408;28;20711;-91
2021/01/09 14:17:58;;;;;;;12.70;11.40;;;2.30;99.90;;;;;;4973654;28;20654;-93
2021/01/09 14:20:28;;;;;;;13.10;11.83;;;2.40;99.90;;;;;;4981444;28;20637;-94
2021/01/09 14:22:56;;;;;;;13.93;12.53;;;2.30;99.90;;;;;;4986750;28;21060;-94
2021/01/09 14:25:32;;;;;;;14.60;13.20;;;2.40;99.90;;;;;;5004327;28;20604;-94
2021/01/09 14:28:00;;;;;;;14.17;12.87;;;2.20;99.90;;;;;;5001835;28;20650;-94
2021/01/09 14:40:48;;;;;;;14.70;13.30;;;2.40;99.90;;;;;;4768124;29;20758;-93
2021/01/09 14:43:24;;;;;;;13.50;12.13;;;2.40;99.90;;;;;;4945729;28;20677;-94
2021/01/09 14:45:57;;;;;;;12.37;11.13;;;2.50;99.90;;;;;;4996413;28;20764;-94
2021/01/09 14:49:13;;;;;;;12.80;11.60;;;2.10;99.90;;;;;;4994061;28;20635;-94
2021/01/09 14:51:43;;;;;;;12.60;11.50;;;2.00;99.90;;;;;;4978029;28;20660;-94
2021/01/09 14:54:17;;;;;;;13.17;11.97;;;1.90;99.90;;;;;;5002767;28;20632;-95
2021/01/09 14:57:04;;;;;;;14.43;12.93;;;2.00;99.90;;;;;;5003810;28;20645;-95
2021/01/09 14:59:36;;;;;;;13.73;12.50;;;2.00;99.90;;;;;;5000393;28;20663;-95
2021/01/09 15:02:03;;;;;;;12.60;11.37;;;1.80;99.90;;;;;;5004217;28;20659;-95
2021/01/09 15:04:37;;;;;;;12.60;11.27;;;1.90;99.90;;;;;;5005033;28;20657;-95
2021/01/09 15:07:07;;;;;;;14.27;12.97;;;1.70;99.90;;;;;;4990571;28;20658;-95
2021/01/09 15:09:36;;;;;;;14.47;13.07;;;1.70;99.90;;;;;;5007768;28;20640;-94
2021/01/09 15:12:04;;;;;;;13.67;12.47;;;1.60;99.90;;;;;;4987737;28;20699;-93
2021/01/09 15:14:36;;;;;;;13.90;12.60;;;1.60;99.90;;;;;;4993521;28;20631;-94
2021/01/09 15:17:05;;;;;;;15.07;13.67;;;1.60;99.90;;;;;;4987869;28;20642;-93
2021/01/09 15:19:34;;;;;;;13.63;12.00;;;1.60;99.90;;;;;;4987710;28;21502;-93
2021/01/09 15:22:02;;;;;;;15.33;13.60;;;1.60;99.90;;;;;;4979748;28;20686;-93
2021/01/09 15:24:32;;;;;;;15.00;13.60;;;1.40;99.90;;;;;;4985803;28;20629;-95
2021/01/09 15:27:06;;;;;;;14.47;13.07;;;1.30;99.90;;;;;;5003807;28;20675;-96
2021/01/09 15:29:35;;;;;;;15.30;13.80;;;1.20;99.90;;;;;;5005717;28;20644;-93
2021/01/09 15:32:05;;;;;;;15.63;14.13;;;1.30;99.90;;;;;;4999031;28;21017;-93
2021/01/09 15:34:31;;;;;;;15.30;13.80;;;1.00;99.90;;;;;;4995189;28;20642;-93
2021/01/09 15:37:06;;;;;;;16.50;14.90;;;1.00;99.90;;;;;;4994291;28;20979;-94
2021/01/09 15:39:38;;;;;;;16.77;15.27;;;1.00;99.90;;;;;;4995970;28;20652;-94
2021/01/09 15:42:07;;;;;;;15.00;13.50;;;0.90;99.90;;;;;;4986736;28;20677;-94
2021/01/09 15:44:34;;;;;;;13.70;12.40;;;1.00;99.90;;;;;;4995053;28;20665;-94
2021/01/09 15:47:04;;;;;;;13.60;12.40;;;0.90;99.90;;;;;;4991513;28;20691;-95
2021/01/09 15:49:32;;;;;;;15.17;13.57;;;0.90;99.90;;;;;;4994395;28;20665;-95
2021/01/09 15:52:05;;;;;;;14.27;12.87;;;0.90;99.90;;;;;;4990882;28;21236;-95
2021/01/09 15:54:34;;;;;;;14.83;13.43;;;0.80;99.90;;;;;;4978898;28;20646;-94
2021/01/09 15:57:00;;;;;;;14.47;13.03;;;0.80;99.90;;;;;;4979357;28;20629;-94
2021/01/09 15:59:28;;;;;;;15.53;13.37;;;0.80;99.90;;;;;;5001773;28;20657;-94
2021/01/09 16:01:56;;;;;;;12.60;11.50;;;0.60;99.90;;;;;;4987676;28;21055;-94
2021/01/09 16:04:30;;;;;;;15.03;13.53;;;0.70;99.90;;;;;;4988880;28;20650;-95
2021/01/09 16:06:58;;;;;;;14.37;12.97;;;0.60;99.90;;;;;;5000435;28;20690;-93
2021/01/09 16:09:30;;;;;;;14.47;13.07;;;0.60;99.90;;;;;;5000070;28;20670;-94
2021/01/09 16:12:03;;;;;;;12.73;11.50;;;0.60;99.90;;;;;;5002824;28;20671;-94
2021/01/09 16:14:35;;;;;;;13.87;12.47;;;0.60;99.90;;;;;;5001377;28;20740;-95
2021/01/09 16:17:12;;;;;;;14.67;13.27;;;0.50;99.90;;;;;;4997382;28;20641;-95
2021/01/09 16:19:40;;;;;;;14.40;13.07;;;0.50;99.90;;;;;;4993371;28;20644;-94
2021/01/09 16:22:07;;;;;;;13.83;12.50;;;0.50;99.90;;;;;;4990859;28;21247;-94
2021/01/09 16:24:34;;;;;;;13.70;12.30;;;0.50;99.90;;;;;;4994835;28;21219;-93
2021/01/09 16:27:02;;;;;;;18.33;16.63;;;0.40;99.90;;;;;;4974772;28;21039;-93
2021/01/09 16:29:33;;;;;;;15.00;13.60;;;0.30;99.90;;;;;;4995956;28;20645;-93
2021/01/09 16:31:59;;;;;;;18.27;16.47;;;0.30;99.90;;;;;;4992222;28;20668;-94
2021/01/09 16:34:34;;;;;;;14.93;13.53;;;0.30;99.90;;;;;;4981972;28;20680;-94
2021/01/09 16:37:01;;;;;;;13.90;12.70;;;0.30;99.90;;;;;;4977771;28;20989;-94
2021/01/09 16:39:35;;;;;;;14.13;12.83;;;0.30;99.90;;;;;;5001161;28;20703;-94
2021/01/09 16:42:03;;;;;;;54.40;30.07;;;0.40;99.90;;;;;;4994285;28;20665;-95
2021/01/09 16:44:33;;;;;;;49.00;30.00;;;0.50;99.90;;;;;;4997216;28;20661;-94
2021/01/09 16:47:01;;;;;;;172.30;77.20;;;0.50;99.90;;;;;;5001867;28;20662;-93
2021/01/09 16:49:35;;;;;;;20.47;16.17;;;0.60;99.90;;;;;;5004651;28;20732;-94
2021/01/09 16:52:08;;;;;;;17.77;15.70;;;0.50;99.90;;;;;;5006572;28;20679;-95
2021/01/09 16:54:36;;;;;;;16.77;15.07;;;0.60;99.90;;;;;;4992436;28;20638;-94
2021/01/09 16:57:04;;;;;;;16.97;15.37;;;0.70;99.90;;;;;;4987481;28;20640;-93
2021/01/09 16:59:31;;;;;;;16.20;14.67;;;0.70;99.90;;;;;;4968082;28;20713;-93
2021/01/09 17:02:01;;;;;;;16.77;15.07;;;0.70;99.90;;;;;;4987431;28;20709;-93
2021/01/09 17:04:29;;;;;;;17.57;15.83;;;0.70;99.90;;;;;;4989586;28;20719;-93
2021/01/09 17:07:03;;;;;;;15.60;14.20;;;0.50;99.90;;;;;;4990916;28;20747;-93
2021/01/09 17:09:30;;;;;;;16.40;14.80;;;0.30;99.90;;;;;;4987018;28;20736;-94
2021/01/09 17:12:00;;;;;;;16.60;15.00;;;0.10;99.90;;;;;;4993418;28;21038;-94
2021/01/09 17:14:28;;;;;;;16.43;14.87;;;0.00;99.90;;;;;;4990530;28;20630;-93
2021/01/09 17:17:02;;;;;;;17.13;15.50;;;0.00;99.90;;;;;;4987347;28;20736;-93
2021/01/09 17:19:31;;;;;;;23.40;21.00;;;-0.10;99.90;;;;;;4992147;28;20633;-92
2021/01/09 17:21:59;;;;;;;18.30;16.60;;;-0.20;99.90;;;;;;4989330;28;21301;-92
2021/01/09 17:24:32;;;;;;;17.37;15.77;;;-0.20;99.90;;;;;;4985151;28;20645;-93
2021/01/09 17:27:00;;;;;;;16.10;14.50;;;-0.30;99.90;;;;;;4993954;28;20771;-93